Time;durP1;ratioP1;P1;durP2;ratioP2;P2;SDS_P1;SDS_P2;PMS_P1;PMS_P2;Temp;Humidity;BMP_temperature;BMP_pressure;BME280_temperature;BME280_humidity;BME280_pressure;Samples;Min_cycle;Max_cycle;Signal;HPM_P1;HPM_P2
2022/05/30 00:02:15;;;;;;;3.80;1.60;;;;;;;-145.69;100.00;72031.25;5070966;28;20273;-79
2022/05/30 00:04:45;;;;;;;3.90;1.67;;;;;;;-145.69;100.00;72041.19;5070960;28;20191;-78
2022/05/30 00:07:20;;;;;;;2.13;1.53;;;;;;;-145.69;100.00;72045.16;5070991;28;20219;-79
2022/05/30 00:09:49;;;;;;;4.00;1.53;;;;;;;-145.69;100.00;72041.19;5070104;28;20198;-78
2022/05/30 00:12:16;;;;;;;2.20;1.30;;;;;;;-145.69;100.00;72047.16;5070593;28;20190;-79
2022/05/30 00:14:42;;;;;;;4.70;1.40;;;;;;;-145.69;100.00;72053.13;5070719;28;20224;-79
2022/05/30 00:17:09;;;;;;;2.20;1.60;;;;;;;-145.69;100.00;72067.06;5070132;28;20210;-78
2022/05/30 00:19:39;;;;;;;6.97;1.90;;;;;;;-145.69;100.00;72059.09;5069890;28;20197;-78
2022/05/30 00:22:11;;;;;;;1.90;1.63;;;;;;;-145.69;100.00;72051.16;5070751;28;20194;-78
2022/05/30 00:24:38;;;;;;;4.90;2.20;;;;;;;-145.69;100.00;72057.13;5069682;28;20274;-78
2022/05/30 00:27:11;;;;;;;3.93;1.97;;;;;;;-145.69;100.00;72061.09;5069337;28;20226;-79
2022/05/30 00:29:39;;;;;;;3.60;1.80;;;;;;;-145.69;100.00;72061.09;5070576;28;20197;-78
2022/05/30 00:32:06;;;;;;;3.70;1.83;;;;;;;-145.69;100.00;72065.06;5070378;28;20190;-79
2022/05/30 00:34:48;;;;;;;2.73;1.80;;;;;;;-145.69;100.00;72075.03;5070483;28;20547;-79
2022/05/30 00:37:14;;;;;;;5.73;1.70;;;;;;;-145.69;100.00;72057.13;5067777;28;20835;-78
2022/05/30 00:39:43;;;;;;;8.40;1.90;;;;;;;-145.69;100.00;72047.16;5069738;28;20680;-78
2022/05/30 00:42:13;;;;;;;7.97;1.60;;;;;;;-145.69;100.00;72039.19;5069398;28;20562;-79
2022/05/30 00:44:45;;;;;;;5.60;1.77;;;;;;;-145.69;100.00;72051.16;5069645;28;20286;-79
2022/05/30 00:47:16;;;;;;;2.17;1.47;;;;;;;-145.69;100.00;72061.09;5069500;28;20226;-78
2022/05/30 00:49:50;;;;;;;2.83;1.50;;;;;;;-145.69;100.00;72067.06;5069489;28;20205;-78
2022/05/30 00:52:20;;;;;;;3.50;1.90;;;;;;;-145.69;100.00;72077.00;5069683;28;20198;-79
2022/05/30 00:54:53;;;;;;;3.97;1.80;;;;;;;-145.69;100.00;72081.00;5069308;28;20241;-79
2022/05/30 00:57:26;;;;;;;2.53;1.60;;;;;;;-145.69;100.00;72081.00;5069478;28;20201;-78
2022/05/30 00:59:57;;;;;;;7.47;2.20;;;;;;;-145.69;100.00;72082.97;5068427;28;20210;-79
2022/05/30 01:02:27;;;;;;;3.63;2.00;;;;;;;-145.69;100.00;72090.94;5069644;28;20674;-78
2022/05/30 01:07:46;;;;;;;6.67;1.73;;;;;;;-145.69;100.00;72077.00;5069250;28;20617;-79
2022/05/30 01:10:17;;;;;;;2.57;1.77;;;;;;;-145.69;100.00;72063.09;5069111;28;20198;-79
2022/05/30 01:12:53;;;;;;;4.03;1.77;;;;;;;-145.69;100.00;72069.06;5068924;28;20229;-78
2022/05/30 01:15:23;;;;;;;6.03;2.40;;;;;;;-145.69;100.00;72082.97;5068800;28;20194;-78
2022/05/30 01:17:54;;;;;;;2.87;1.77;;;;;;;-145.69;100.00;72090.94;5069175;28;20210;-78
2022/05/30 01:20:39;;;;;;;3.37;1.63;;;;;;;-145.69;100.00;72090.94;5069669;28;20221;-78
2022/05/30 01:23:30;;;;;;;7.27;2.20;;;;;;;-145.69;100.00;72079.00;5068875;28;20194;-78
2022/05/30 01:26:19;;;;;;;3.47;1.90;;;;;;;-145.69;100.00;72086.97;5068887;28;20218;-79
2022/05/30 01:28:55;;;;;;;4.57;1.80;;;;;;;-145.69;100.00;72096.91;5068868;28;20256;-79
2022/05/30 01:31:24;;;;;;;2.83;1.90;;;;;;;-145.69;100.00;72086.97;5066030;28;20205;-77
2022/05/30 01:33:50;;;;;;;4.27;1.80;;;;;;;-145.69;100.00;72082.97;5068828;28;20190;-79
2022/05/30 01:36:17;;;;;;;3.97;1.70;;;;;;;-145.69;100.00;72079.00;5068252;28;20198;-78
2022/05/30 01:38:49;;;;;;;8.20;2.20;;;;;;;-145.69;100.00;72073.03;5068359;28;20199;-77
2022/05/30 01:41:20;;;;;;;3.60;1.63;;;;;;;-145.69;100.00;72075.03;5068974;28;20561;-78
2022/05/30 01:43:54;;;;;;;5.00;2.00;;;;;;;-145.69;100.00;72081.00;5069080;28;20302;-78
2022/05/30 01:46:23;;;;;;;4.57;2.20;;;;;;;-145.69;100.00;72077.00;5069053;28;20230;-78
2022/05/30 01:48:51;;;;;;;4.82;2.15;;;;;;;-145.69;100.00;72086.97;5066848;28;20442;-78
2022/05/30 01:51:20;;;;;;;4.10;1.70;;;;;;;-145.69;100.00;72104.88;5068534;28;20195;-78
2022/05/30 01:53:50;;;;;;;2.90;1.73;;;;;;;-145.69;100.00;72126.78;5069184;28;20202;-78
2022/05/30 01:56:18;;;;;;;3.80;1.73;;;;;;;-145.69;100.00;72134.72;5068400;28;20216;-78
2022/05/30 01:58:45;;;;;;;2.73;2.20;;;;;;;-145.69;100.00;72140.69;5068191;28;20202;-79
2022/05/30 02:01:19;;;;;;;5.13;2.13;;;;;;;-145.69;100.00;72140.69;5068975;28;20198;-79
2022/05/30 02:03:50;;;;;;;6.10;2.47;;;;;;;-145.69;100.00;72130.75;5068743;28;20198;-79
2022/05/30 02:06:17;;;;;;;6.47;2.50;;;;;;;-145.69;100.00;72114.81;5067878;28;20215;-78
2022/05/30 02:08:48;;;;;;;4.60;2.43;;;;;;;-145.69;100.00;72102.88;5068103;28;20205;-79
2022/05/30 02:11:16;;;;;;;4.60;2.50;;;;;;;-145.69;100.00;72106.88;5068562;28;20274;-79
2022/05/30 02:13:43;;;;;;;4.27;2.30;;;;;;;-145.69;100.00;72112.84;5068574;28;20244;-79
2022/05/30 02:19:00;;;;;;;4.50;2.53;;;;;;;-145.69;100.00;72122.78;5049305;28;20257;-78
2022/05/30 02:21:30;;;;;;;3.37;2.37;;;;;;;-145.69;100.00;72114.81;5068504;28;20195;-78
2022/05/30 02:23:59;;;;;;;4.50;2.80;;;;;;;-145.69;100.00;72102.88;5067964;28;20205;-78
2022/05/30 02:26:26;;;;;;;6.37;2.67;;;;;;;-145.69;100.00;72104.88;5067983;28;20227;-79
2022/05/30 02:28:53;;;;;;;4.57;2.27;;;;;;;-145.69;100.00;72112.84;5068436;28;20206;-79
2022/05/30 02:31:19;;;;;;;5.37;2.80;;;;;;;-145.69;100.00;72118.81;5068818;28;20244;-79
2022/05/30 02:36:44;;;;;;;5.03;2.80;;;;;;;-145.69;100.00;72118.81;5068506;28;20321;-79
2022/05/30 02:39:16;;;;;;;10.90;2.80;;;;;;;-145.69;100.00;72132.75;5068272;28;20202;-79
2022/05/30 02:41:48;;;;;;;6.83;2.70;;;;;;;-145.69;100.00;72150.66;5068645;28;20289;-79
2022/05/30 02:44:18;;;;;;;5.13;2.63;;;;;;;-145.69;100.00;72166.56;5068481;28;20553;-79
2022/05/30 02:46:45;;;;;;;3.93;3.00;;;;;;;-145.69;100.00;72130.75;5068728;28;20218;-78
2022/05/30 02:49:16;;;;;;;8.63;3.60;;;;;;;-145.69;100.00;72120.81;5072029;28;20202;-78
2022/05/30 02:51:45;;;;;;;6.13;3.47;;;;;;;-145.69;100.00;72116.81;5071876;28;20195;-79
2022/05/30 02:54:13;;;;;;;5.83;3.40;;;;;;;-145.69;100.00;72134.72;5073428;28;20194;-79
2022/05/30 02:56:40;;;;;;;5.87;2.70;;;;;;;-145.69;100.00;72148.66;5075637;28;20272;-79
2022/05/30 02:59:08;;;;;;;7.10;3.10;;;;;;;-145.69;100.00;72160.59;5075716;28;20442;-79
2022/05/30 03:01:35;;;;;;;5.77;3.63;;;;;;;-145.69;100.00;72154.63;5075704;28;20293;-79
2022/05/30 03:04:04;;;;;;;7.63;3.10;;;;;;;-145.69;100.00;72166.56;5073086;28;20203;-79
2022/05/30 03:06:31;;;;;;;9.00;3.10;;;;;;;-145.69;100.00;72172.53;5071099;28;20218;-79
2022/05/30 03:08:59;;;;;;;7.23;2.97;;;;;;;-145.69;100.00;72178.53;5071853;28;20194;-78
2022/05/30 03:11:25;;;;;;;4.50;3.10;;;;;;;-145.69;100.00;72170.56;5071557;28;20281;-78
2022/05/30 03:13:53;;;;;;;8.03;3.43;;;;;;;-145.69;100.00;72178.53;5071031;28;20546;-79
2022/05/30 03:16:20;;;;;;;6.53;4.00;;;;;;;-145.69;100.00;72154.63;5070719;28;20245;-78
2022/05/30 03:18:50;;;;;;;10.40;4.13;;;;;;;-145.69;100.00;72134.72;5071898;28;20281;-78
2022/05/30 03:21:19;;;;;;;8.20;4.60;;;;;;;-145.69;100.00;72132.75;5071351;28;20250;-79
2022/05/30 03:23:46;;;;;;;10.83;3.87;;;;;;;-145.69;100.00;72140.69;5070919;28;20186;-78
2022/05/30 03:26:16;;;;;;;11.10;4.27;;;;;;;-145.69;100.00;72128.75;5072114;28;20215;-77
2022/05/30 03:28:43;;;;;;;7.50;4.00;;;;;;;-145.69;100.00;72130.75;5070658;28;20223;-78
2022/05/30 03:31:14;;;;;;;7.90;3.33;;;;;;;-145.69;100.00;72138.72;5071636;28;20197;-79
2022/05/30 03:33:41;;;;;;;9.07;4.00;;;;;;;-145.69;100.00;72138.72;5071530;28;20570;-79
2022/05/30 03:36:20;;;;;;;11.80;4.23;;;;;;;-145.69;100.00;72124.78;5070845;28;20190;-79
2022/05/30 03:38:51;;;;;;;10.83;4.10;;;;;;;-145.69;100.00;72142.69;5071316;28;20213;-79
2022/05/30 03:41:24;;;;;;;7.53;3.43;;;;;;;-145.69;100.00;72160.59;5071170;28;20666;-79
2022/05/30 03:43:53;;;;;;;7.00;3.40;;;;;;;-145.69;100.00;72178.53;5070933;28;20197;-80
2022/05/30 03:46:19;;;;;;;8.53;3.77;;;;;;;-145.69;100.00;72160.59;5069842;28;20195;-79
2022/05/30 03:48:46;;;;;;;13.47;4.33;;;;;;;-145.69;100.00;72150.66;5070983;28;20230;-80
2022/05/30 03:51:14;;;;;;;11.80;4.00;;;;;;;-145.69;100.00;72150.66;5070782;28;20195;-79
2022/05/30 03:53:43;;;;;;;9.60;4.07;;;;;;;-145.69;100.00;72148.66;5070568;28;20218;-79
2022/05/30 03:56:13;;;;;;;15.07;3.83;;;;;;;-145.69;100.00;72166.56;5070402;28;20210;-79
2022/05/30 03:58:41;;;;;;;5.70;3.70;;;;;;;-145.69;100.00;72190.47;5070385;28;20202;-79
2022/05/30 04:01:08;;;;;;;5.77;3.57;;;;;;;-145.69;100.00;72182.50;5070419;28;20195;-79
2022/05/30 04:03:36;;;;;;;5.87;3.83;;;;;;;-145.69;100.00;72186.47;5070367;28;20191;-79
2022/05/30 04:06:06;;;;;;;5.73;3.60;;;;;;;-145.69;100.00;72186.47;5069389;28;20198;-79
2022/05/30 04:08:32;;;;;;;6.27;3.23;;;;;;;-145.69;100.00;72180.50;5070258;28;20235;-80
2022/05/30 04:11:03;;;;;;;11.00;4.68;;;;;;;-145.69;100.00;72186.47;5069018;28;20939;-79
2022/05/30 04:13:33;;;;;;;7.77;4.10;;;;;;;-145.69;100.00;72174.53;5070528;28;20282;-78
2022/05/30 04:16:08;;;;;;;9.23;4.07;;;;;;;-145.69;100.00;72174.53;5070167;28;20214;-79
2022/05/30 04:18:34;;;;;;;6.57;3.80;;;;;;;-145.69;100.00;72178.53;5070418;28;20205;-78
2022/05/30 04:21:01;;;;;;;8.37;3.40;;;;;;;-145.69;100.00;72174.53;5069949;28;20654;-78
2022/05/30 04:23:28;;;;;;;9.33;3.37;;;;;;;-145.69;100.00;72170.56;5070147;28;20191;-78
2022/05/30 04:26:00;;;;;;;8.93;4.00;;;;;;;-145.69;100.00;72164.59;5070100;28;20697;-79
2022/05/30 04:28:27;;;;;;;12.50;5.10;;;;;;;-145.69;100.00;72148.66;5069978;28;20226;-79
2022/05/30 04:30:56;;;;;;;11.80;5.03;;;;;;;-145.69;100.00;72158.63;5070246;28;20282;-78
2022/05/30 04:33:28;;;;;;;7.60;4.93;;;;;;;-145.69;100.00;72154.63;5069956;28;20560;-79
2022/05/30 04:35:54;;;;;;;11.67;4.67;;;;;;;-145.69;100.00;72144.69;5070039;28;20198;-78
2022/05/30 04:38:21;;;;;;;12.20;4.53;;;;;;;-145.69;100.00;72136.72;5070142;28;20195;-78
2022/05/30 04:40:47;;;;;;;12.40;4.97;;;;;;;-145.69;100.00;72122.78;5070411;28;20199;-78
2022/05/30 04:43:14;;;;;;;8.27;4.43;;;;;;;-145.69;100.00;72114.81;5069843;28;20276;-78
2022/05/30 04:45:41;;;;;;;7.67;4.13;;;;;;;-145.69;100.00;72114.81;5069490;28;20249;-78
2022/05/30 04:48:10;;;;;;;10.75;4.60;;;;;;;-145.69;100.00;72102.88;5068472;28;20550;-78
2022/05/30 04:50:39;;;;;;;5.43;3.70;;;;;;;-145.69;100.00;72100.91;5069859;28;20207;-78
2022/05/30 04:53:06;;;;;;;7.97;3.47;;;;;;;-145.69;100.00;72092.94;5069212;28;20198;-78
2022/05/30 04:55:40;;;;;;;6.90;3.30;;;;;;;-145.69;100.00;72075.03;5069610;28;20255;-78
2022/05/30 04:58:07;;;;;;;7.87;4.03;;;;;;;-145.69;100.00;72061.09;5072596;28;20194;-78
2022/05/30 05:00:36;;;;;;;7.60;3.93;;;;;;;-145.69;100.00;72055.13;5073702;28;20202;-79
2022/05/30 05:03:07;;;;;;;13.77;4.33;;;;;;;-145.69;100.00;72043.19;5073626;28;20199;-78
2022/05/30 05:05:34;;;;;;;5.83;4.30;;;;;;;-145.69;100.00;72027.25;5073409;28;20203;-78
2022/05/30 05:08:27;;;;;;;13.37;4.63;;;;;;;-145.69;100.00;72015.31;5070468;28;20229;-78
2022/05/30 05:11:00;;;;;;;16.70;5.63;;;;;;;-145.69;100.00;71993.44;5067652;28;20202;-79
2022/05/30 05:13:27;;;;;;;9.83;5.30;;;;;;;-145.69;100.00;71973.53;5069477;28;20191;-79
2022/05/30 05:15:56;;;;;;;9.90;4.77;;;;;;;-145.69;100.00;71973.53;5069529;28;20202;-79
2022/05/30 05:18:24;;;;;;;9.37;4.10;;;;;;;-145.69;100.00;71953.63;5069282;28;20293;-79
2022/05/30 05:20:51;;;;;;;11.63;5.70;;;;;;;-145.69;100.00;71933.72;5068755;28;20601;-79
2022/05/30 05:23:19;;;;;;;11.67;5.33;;;;;;;-145.69;100.00;71913.81;5068908;28;20194;-79
2022/05/30 05:25:45;;;;;;;7.77;5.33;;;;;;;-145.69;100.00;71889.94;5068668;28;20236;-79
2022/05/30 05:28:12;;;;;;;14.23;5.53;;;;;;;-145.69;100.00;71858.09;5069193;28;20219;-79
2022/05/30 05:30:41;;;;;;;16.03;6.73;;;;;;;-145.69;100.00;71844.16;5069131;28;20195;-78
2022/05/30 05:33:08;;;;;;;10.27;4.93;;;;;;;-145.69;100.00;71808.34;5068448;28;20272;-79
2022/05/30 05:35:43;;;;;;;7.77;4.27;;;;;;;-145.69;100.00;71772.53;5069029;28;20256;-79
2022/05/30 05:38:10;;;;;;;10.57;3.90;;;;;;;-145.69;100.00;71704.88;5069428;28;20561;-79
2022/05/30 05:40:44;;;;;;;9.47;4.23;;;;;;;-145.69;100.00;71601.38;5069616;28;20202;-79
2022/05/30 05:43:10;;;;;;;8.03;2.93;;;;;;;-145.69;100.00;71523.78;5068549;28;20195;-79
2022/05/30 05:45:44;;;;;;;7.33;2.10;;;;;;;-145.69;100.00;71396.44;5068243;28;20191;-79
2022/05/30 05:48:13;;;;;;;2.83;1.77;;;;;;;-145.69;100.00;71290.97;5069587;28;20222;-79
2022/05/30 05:50:41;;;;;;;5.05;2.08;;;;;;;-145.69;100.00;71221.31;5068348;28;20893;-79
2022/05/30 05:53:29;;;;;;;3.72;1.52;;;;;;;-145.69;100.00;71127.81;5068620;28;20723;-80
2022/05/30 05:56:00;;;;;;;4.43;1.40;;;;;;;-145.69;100.00;71161.63;5067963;28;20446;-80
2022/05/30 05:58:35;;;;;;;3.33;1.48;;;;;;;-145.69;94.83;71095.97;5068563;28;20223;-80
2022/05/30 06:01:17;;;;;;;3.55;1.35;;;;;;;-145.69;80.13;71016.38;5067794;28;20217;-80
2022/05/30 06:03:49;;;;;;;3.33;1.30;;;;;;;-145.69;85.95;71062.13;5068882;28;20203;-81
2022/05/30 06:06:15;;;;;;;3.67;1.35;;;;;;;-145.69;81.27;71095.97;5068544;28;20199;-79
2022/05/30 06:08:44;;;;;;;3.65;1.40;;;;;;;-145.69;79.41;71056.16;5070966;28;20226;-79
2022/05/30 06:11:21;;;;;;;5.82;1.60;;;;;;;-145.69;81.72;71064.13;5072272;28;20218;-78
2022/05/30 06:13:51;;;;;;;4.28;1.60;;;;;;;-145.69;73.43;70940.78;5072811;28;20297;-78
2022/05/30 06:16:23;;;;;;;6.53;1.63;;;;;;;-145.69;73.19;70948.72;5072617;28;20198;-78
2022/05/30 06:18:57;;;;;;;2.60;1.15;;;;;;;-145.69;73.02;70976.59;5069355;28;20199;-79
2022/05/30 06:21:31;;;;;;;4.38;1.52;;;;;;;-145.69;78.21;71050.22;5068289;28;20198;-79
2022/05/30 06:24:01;;;;;;;5.13;1.42;;;;;;;-145.69;76.14;71058.16;5071887;28;20249;-79
2022/05/30 06:26:35;;;;;;;4.57;1.40;;;;;;;-145.69;79.17;71139.75;5072814;28;20252;-78
2022/05/30 06:29:07;;;;;;;3.20;1.20;;;;;;;-145.69;79.13;71187.50;5071585;28;20231;-78
2022/05/30 06:31:40;;;;;;;2.42;1.02;;;;;;;-145.69;76.85;71203.41;5072953;28;20207;-78
2022/05/30 06:34:07;;;;;;;3.45;1.15;;;;;;;-145.69;65.06;71217.34;5071411;28;20459;-79
2022/05/30 06:36:40;;;;;;;4.55;0.90;;;;;;;-145.69;67.46;71167.59;5072298;28;20190;-79
2022/05/30 06:39:10;;;;;;;6.32;1.50;;;;;;;-145.69;68.02;71107.91;5072074;28;20191;-78
2022/05/30 06:41:43;;;;;;;5.85;2.13;;;;;;;-145.69;76.46;71076.06;5071765;28;20865;-79
2022/05/30 06:44:13;;;;;;;4.03;1.70;;;;;;;-145.69;75.89;71020.34;5072396;28;20195;-79
2022/05/30 06:46:39;;;;;;;5.57;1.65;;;;;;;-145.69;74.14;70970.63;5071000;28;20195;-79
2022/05/30 06:49:07;;;;;;;5.57;1.70;;;;;;;-145.69;77.97;71117.84;5072333;28;20234;-79
2022/05/30 06:51:35;;;;;;;2.22;1.30;;;;;;;-145.69;76.67;71105.91;5072174;28;20198;-80
2022/05/30 06:54:07;;;;;;;4.25;1.55;;;;;;;-145.69;81.45;71139.75;5071446;28;20260;-82
2022/05/30 06:56:37;;;;;;;5.40;1.23;;;;;;;-145.69;69.54;71092.00;5071758;28;20219;-79
2022/05/30 06:59:08;;;;;;;2.78;1.10;;;;;;;-145.69;61.37;71076.06;5072311;28;20289;-79
2022/05/30 07:01:39;;;;;;;3.17;0.80;;;;;;;-145.69;53.78;71026.31;5071862;28;20191;-79
2022/05/30 07:04:09;;;;;;;2.30;0.85;;;;;;;-145.69;52.45;71032.28;5071593;28;20225;-79
2022/05/30 07:06:36;;;;;;;5.50;1.05;;;;;;;-145.69;57.03;71062.13;5070611;28;20214;-78
2022/05/30 07:09:09;;;;;;;4.38;1.17;;;;;;;-145.69;56.45;71092.00;5069960;28;20229;-78
2022/05/30 07:11:39;;;;;;;2.85;0.95;;;;;;;-145.69;54.55;71131.78;5071394;28;20477;-78
2022/05/30 07:14:12;;;;;;;3.85;1.00;;;;;;;-145.69;69.96;71072.09;5071600;28;20677;-78
2022/05/30 07:16:39;;;;;;;3.47;0.95;;;;;;;-145.69;60.81;71093.97;5072093;28;20191;-77
2022/05/30 07:19:11;;;;;;;7.68;1.42;;;;;;;-145.69;53.75;71105.91;5071433;28;20231;-76
2022/05/30 07:21:41;;;;;;;2.35;0.90;;;;;;;-145.69;55.87;71113.88;5070961;28;20554;-77
2022/05/30 07:24:16;;;;;;;5.20;1.00;;;;;;;-145.69;56.09;71123.81;5071507;28;20197;-77
2022/05/30 07:26:49;;;;;;;5.77;1.57;;;;;;;-145.69;54.82;71115.88;5071473;28;20721;-77
2022/05/30 07:29:20;;;;;;;4.60;0.97;;;;;;;-145.69;52.82;71125.81;5071568;28;20268;-78
2022/05/30 07:31:51;;;;;;;2.83;1.20;;;;;;;-145.69;65.27;71123.81;5071889;28;20203;-77
2022/05/30 07:34:23;;;;;;;5.17;1.80;;;;;;;-145.69;71.53;71157.66;5069641;28;20676;-76
2022/05/30 07:36:49;;;;;;;5.67;1.17;;;;;;;-145.69;66.47;71195.47;5070851;28;20642;-77
2022/05/30 07:39:18;;;;;;;3.10;1.20;;;;;;;-145.69;66.57;71167.59;5070595;28;20194;-78
2022/05/30 07:41:47;;;;;;;3.67;1.23;;;;;;;-145.69;64.21;71123.81;5071073;28;20224;-77
2022/05/30 07:44:24;;;;;;;1.90;1.20;;;;;;;-145.69;70.54;71093.97;5070898;28;20195;-77
2022/05/30 07:47:18;;;;;;;;;;;;;;;;;;;;;
2022/05/30 07:49:51;;;;;;;2.70;1.33;;;;;;;-145.69;72.52;71159.63;5064042;28;20237;-77
2022/05/30 07:52:21;;;;;;;5.83;1.83;;;;;;;-145.69;70.55;71195.47;5071426;28;20195;-79
2022/05/30 07:54:47;;;;;;;2.87;1.30;;;;;;;-145.69;70.70;71219.34;5071089;28;20281;-76
2022/05/30 07:57:14;;;;;;;4.17;1.50;;;;;;;-145.69;72.28;71213.38;5070353;28;20187;-76
2022/05/30 07:59:42;;;;;;;3.60;1.60;;;;;;;-145.69;70.90;71159.63;5070639;28;20199;-77
2022/05/30 08:02:11;;;;;;;5.57;1.50;;;;;;;-145.69;69.17;71099.94;5070881;28;20191;-76
2022/05/30 08:04:37;;;;;;;3.47;1.70;;;;;;;-145.69;69.39;71103.94;5070785;28;20199;-79
2022/05/30 08:07:06;;;;;;;3.27;1.40;;;;;;;-145.69;66.54;71084.03;5070621;28;20731;-79
2022/05/30 08:09:33;;;;;;;4.03;1.37;;;;;;;-145.69;66.02;71052.19;5070078;28;20280;-79
2022/05/30 08:11:59;;;;;;;1.43;1.20;;;;;;;-145.69;61.46;71052.19;5067616;28;20263;-80
2022/05/30 08:14:26;;;;;;;3.87;1.30;;;;;;;-145.69;60.37;71058.16;5063815;28;20612;-77
2022/05/30 08:16:52;;;;;;;2.80;1.13;;;;;;;-145.69;57.22;71056.16;5069591;28;20214;-76
2022/05/30 08:19:21;;;;;;;5.70;1.30;;;;;;;-145.69;61.53;71050.22;5070341;28;20214;-76
2022/05/30 08:21:47;;;;;;;2.67;1.30;;;;;;;-145.69;62.84;71068.13;5070719;28;20680;-77
2022/05/30 08:24:13;;;;;;;5.03;1.17;;;;;;;-145.69;58.63;71008.41;5070141;28;20207;-79
2022/05/30 08:26:40;;;;;;;6.07;1.65;;;;;;;-145.69;57.77;71012.41;5069194;28;20841;-78
2022/05/30 08:29:06;;;;;;;4.40;1.10;;;;;;;-145.69;60.43;71006.44;5070297;28;20264;-76
2022/05/30 08:31:33;;;;;;;4.13;1.53;;;;;;;-145.69;57.67;70980.56;5069549;28;20650;-76
2022/05/30 08:33:59;;;;;;;2.55;1.33;;;;;;;-145.69;53.58;70980.56;5069616;28;20248;-76
2022/05/30 08:36:27;;;;;;;4.73;1.20;;;;;;;-145.69;60.52;70978.56;5069900;28;20199;-77
2022/05/30 08:41:49;;;;;;;3.30;1.23;;;;;;;-145.69;56.46;71004.44;5069731;28;20554;-77
2022/05/30 08:44:17;;;;;;;3.70;1.30;;;;;;;-145.69;56.40;71016.38;5070060;28;20195;-78
2022/05/30 08:46:54;;;;;;;3.33;1.30;;;;;;;-145.69;53.07;71016.38;5069050;28;20198;-76
2022/05/30 08:49:26;;;;;;;5.93;1.25;;;;;;;-145.69;54.49;70984.53;5070138;28;20263;-78
2022/05/30 08:52:12;;;;;;;4.72;1.20;;;;;;;-145.69;55.80;70956.69;5070399;28;20201;-78
2022/05/30 08:54:51;;;;;;;9.60;1.50;;;;;;;-145.69;60.89;70916.91;5073390;28;20719;-78
2022/05/30 08:57:29;;;;;;;4.68;1.30;;;;;;;-145.69;55.22;70906.94;5072787;28;20783;-76
2022/05/30 09:00:05;;;;;;;2.90;1.00;;;;;;;-145.69;56.91;70902.97;5068928;28;20203;-76
2022/05/30 09:02:42;;;;;;;3.22;1.08;;;;;;;-145.69;53.57;70910.94;5069531;28;20213;-76
2022/05/30 09:05:11;;;;;;;5.22;1.10;;;;;;;-145.69;52.41;70924.84;5069110;28;20201;-76
2022/05/30 09:07:46;;;;;;;3.10;1.00;;;;;;;-145.69;55.09;70928.84;5069013;28;20210;-77
2022/05/30 09:10:21;;;;;;;2.47;1.00;;;;;;;-145.69;54.65;70899.00;5068856;28;20226;-75
2022/05/30 09:12:55;;;;;;;2.47;1.13;;;;;;;-145.69;50.60;70900.97;5068920;28;20202;-78
2022/05/30 09:15:26;;;;;;;3.80;1.00;;;;;;;-145.69;52.01;70881.09;5069191;28;20191;-76
2022/05/30 09:17:57;;;;;;;4.60;1.17;;;;;;;-145.69;49.81;70926.84;5069275;28;20195;-76
2022/05/30 09:20:25;;;;;;;2.40;1.08;;;;;;;-145.69;54.13;70891.03;5069366;28;20222;-76
2022/05/30 09:22:56;;;;;;;4.15;1.10;;;;;;;-145.69;52.21;70873.13;5068845;28;20195;-76
2022/05/30 09:28:12;;;;;;;6.10;1.08;;;;;;;-145.69;55.24;70891.03;5069446;28;20276;-77
2022/05/30 09:30:47;;;;;;;4.38;0.93;;;;;;;-145.69;55.52;70841.28;5068975;28;20264;-77
2022/05/30 09:33:28;;;;;;;3.47;1.10;;;;;;;-145.69;48.52;70867.16;5069075;28;20220;-77
2022/05/30 09:36:12;;;;;;;2.60;0.82;;;;;;;-145.69;50.13;70877.09;5068208;28;21063;-76
2022/05/30 09:38:47;;;;;;;2.95;0.93;;;;;;;-145.69;51.83;70910.94;5068062;28;20248;-77
2022/05/30 09:41:19;;;;;;;1.55;0.85;;;;;;;-145.69;49.07;70867.16;5068562;28;20281;-77
2022/05/30 09:43:51;;;;;;;2.90;1.08;;;;;;;-145.69;48.93;70930.81;5069124;28;20203;-81
2022/05/30 09:46:27;;;;;;;2.22;0.93;;;;;;;-145.69;49.65;70928.84;5068829;28;20241;-78
2022/05/30 09:49:06;;;;;;;7.35;1.08;;;;;;;-145.69;53.04;70936.78;5068972;28;20279;-75
2022/05/30 09:51:40;;;;;;;3.13;1.00;;;;;;;-145.69;55.26;70938.78;5069111;28;20195;-76
2022/05/30 09:54:12;;;;;;;5.07;1.20;;;;;;;-145.69;48.92;70928.84;5069229;28;20542;-77
2022/05/30 09:56:45;;;;;;;3.05;1.08;;;;;;;-145.69;51.36;70928.84;5068454;28;20195;-77
2022/05/30 09:59:30;;;;;;;2.90;0.93;;;;;;;-145.69;48.57;70928.84;5068821;28;20195;-78
2022/05/30 10:01:57;;;;;;;1.63;0.93;;;;;;;-145.69;48.99;70964.66;5068681;28;20187;-76
2022/05/30 10:04:41;;;;;;;2.53;1.08;;;;;;;-145.69;49.69;70976.59;5069333;28;20197;-75
2022/05/30 10:07:13;;;;;;;6.32;1.00;;;;;;;-145.69;54.78;70936.78;5066407;28;20194;-75
2022/05/30 10:09:51;;;;;;;7.03;1.20;;;;;;;-145.69;51.36;70910.94;5068767;28;20306;-76
2022/05/30 10:12:32;;;;;;;2.75;1.35;;;;;;;-145.69;46.51;70904.97;5068659;28;20219;-76
2022/05/30 10:14:59;;;;;;;2.83;1.15;;;;;;;-145.69;50.77;70865.16;5067732;28;20442;-77
2022/05/30 10:17:31;;;;;;;3.38;1.23;;;;;;;-145.69;48.92;70895.00;5068548;28;20195;-76
2022/05/30 10:20:01;;;;;;;1.50;1.00;;;;;;;-145.69;49.29;70932.81;5072758;28;20302;-76
2022/05/30 10:28:49;;;;;;;3.58;1.10;;;;;;;-145.69;49.81;70873.13;5070132;28;20206;-79
2022/05/30 10:31:36;;;;;;;2.63;0.90;;;;;;;-145.69;51.98;70845.28;5068486;28;20281;-77
2022/05/30 10:34:35;;;;;;;2.97;1.13;;;;;;;-145.69;49.15;70817.41;5067983;28;20316;-77
2022/05/30 10:37:13;;;;;;;2.78;1.00;;;;;;;-145.69;50.67;70801.50;5049185;28;20207;-79
2022/05/30 10:40:03;;;;;;;4.63;0.80;;;;;;;-145.69;44.88;70805.47;5068256;28;20199;-82
2022/05/30 10:42:38;;;;;;;2.15;0.98;;;;;;;-145.69;44.05;70767.69;5070358;28;20561;-78
2022/05/30 10:45:12;;;;;;;5.57;1.10;;;;;;;-145.69;44.33;70765.69;5072472;28;20194;-78
2022/05/30 10:47:45;;;;;;;2.58;0.90;;;;;;;-145.69;43.37;70865.16;5071765;28;20236;-79
2022/05/30 10:50:18;;;;;;;7.30;1.15;;;;;;;-145.69;44.17;70891.03;5072149;28;20296;-79
2022/05/30 10:52:50;;;;;;;1.55;0.82;;;;;;;-145.69;53.85;70869.16;5072387;28;20199;-81
2022/05/30 10:55:23;;;;;;;3.60;1.00;;;;;;;-145.69;45.09;70849.25;5070898;28;20214;-78
2022/05/30 10:58:00;;;;;;;3.55;0.90;;;;;;;-145.69;53.27;70777.63;5068176;28;20199;-79
2022/05/30 11:00:32;;;;;;;2.25;0.85;;;;;;;-145.69;43.66;70813.44;5068494;28;20194;-79
2022/05/30 11:03:11;;;;;;;1.52;0.80;;;;;;;-145.69;40.49;70775.63;5067909;28;20205;-80
2022/05/30 11:05:44;;;;;;;4.43;1.25;;;;;;;-145.69;40.93;70767.69;5068951;28;20203;-83
2022/05/30 11:08:18;;;;;;;1.90;0.90;;;;;;;-145.69;41.06;70805.47;5071167;28;20214;-80
2022/05/30 11:10:49;;;;;;;2.25;0.80;;;;;;;-145.69;40.74;70867.16;5073388;28;20222;-80
2022/05/30 11:13:35;;;;;;;3.28;1.00;;;;;;;-145.69;41.77;70887.06;5071691;28;20202;-80
2022/05/30 11:16:12;;;;;;;1.67;1.08;;;;;;;-145.69;41.72;70849.25;5071718;28;20198;-80
2022/05/30 11:18:47;;;;;;;3.50;1.13;;;;;;;-145.69;41.24;70851.25;5071389;28;20199;-80
2022/05/30 11:21:25;;;;;;;2.70;1.00;;;;;;;-145.69;39.00;70857.22;5071328;28;20237;-80
2022/05/30 11:23:52;;;;;;;3.22;1.00;;;;;;;-145.69;41.07;70825.38;5070914;28;20600;-81
2022/05/30 11:26:36;;;;;;;3.50;0.77;;;;;;;-145.69;47.22;70789.56;5071467;28;20226;-81
2022/05/30 11:29:15;;;;;;;2.38;0.90;;;;;;;-145.69;42.29;70801.50;5071059;28;20649;-80
2022/05/30 11:31:50;;;;;;;1.70;0.88;;;;;;;-145.69;40.06;70843.28;5071655;28;20187;-80
2022/05/30 11:34:34;;;;;;;1.20;1.02;;;;;;;-145.69;40.66;70767.69;5071232;28;20218;-80
2022/05/30 11:37:11;;;;;;;3.88;0.98;;;;;;;-145.69;38.63;70777.63;5070629;28;20538;-81
2022/05/30 11:40:01;;;;;;;1.02;0.77;;;;;;;-145.69;42.92;70706.00;5070386;28;20202;-80
2022/05/30 11:42:40;;;;;;;2.00;0.90;;;;;;;-145.69;38.98;70662.22;5070849;28;20194;-79
2022/05/30 11:45:18;;;;;;;2.85;0.65;;;;;;;-145.69;38.58;70658.25;5070451;28;20221;-80
2022/05/30 11:47:57;;;;;;;2.78;0.80;;;;;;;-145.69;38.18;70692.06;5070778;28;20199;-82
2022/05/30 11:50:32;;;;;;;3.95;0.88;;;;;;;-145.69;38.95;70751.75;5070652;28;20230;-81
2022/05/30 11:53:34;;;;;;;2.65;0.82;;;;;;;-145.69;39.78;70706.00;5071010;28;20186;-80
2022/05/30 11:56:12;;;;;;;2.97;0.73;;;;;;;-145.69;36.86;70704.00;5066065;28;20442;-80